sensor_id;sensor_type;location;lat;lon;timestamp;P1;durP1;ratioP1;P2;durP2;ratioP2
59054;SDS011;44845;51.444;7.460;2023-02-14T00:02:02;6.13;;;4.50;;
59054;SDS011;44845;51.444;7.460;2023-02-14T00:04:28;7.20;;;5.25;;
59054;SDS011;44845;51.444;7.460;2023-02-14T00:06:53;6.80;;;4.60;;
59054;SDS011;44845;51.444;7.460;2023-02-14T00:09:19;6.80;;;4.68;;
59054;SDS011;44845;51.444;7.460;2023-02-14T00:11:44;7.85;;;4.88;;
59054;SDS011;44845;51.444;7.460;2023-02-14T00:14:10;9.57;;;5.25;;
59054;SDS011;44845;51.444;7.460;2023-02-14T00:16:55;7.88;;;4.35;;
59054;SDS011;44845;51.444;7.460;2023-02-14T00:19:21;7.22;;;4.47;;
59054;SDS011;44845;51.444;7.460;2023-02-14T00:21:49;6.68;;;4.25;;
59054;SDS011;44845;51.444;7.460;2023-02-14T00:24:16;6.40;;;4.32;;
59054;SDS011;44845;51.444;7.460;2023-02-14T00:26:43;5.28;;;3.90;;
59054;SDS011;44845;51.444;7.460;2023-02-14T00:29:10;7.00;;;4.63;;
59054;SDS011;44845;51.444;7.460;2023-02-14T00:31:37;7.40;;;4.15;;
59054;SDS011;44845;51.444;7.460;2023-02-14T00:34:03;8.68;;;4.47;;
59054;SDS011;44845;51.444;7.460;2023-02-14T00:36:30;5.53;;;3.95;;
59054;SDS011;44845;51.444;7.460;2023-02-14T00:38:56;7.55;;;3.97;;
59054;SDS011;44845;51.444;7.460;2023-02-14T00:41:22;7.78;;;3.30;;
59054;SDS011;44845;51.444;7.460;2023-02-14T00:43:48;7.45;;;3.53;;
59054;SDS011;44845;51.444;7.460;2023-02-14T00:46:15;6.78;;;3.50;;
59054;SDS011;44845;51.444;7.460;2023-02-14T00:48:41;5.32;;;3.38;;
59054;SDS011;44845;51.444;7.460;2023-02-14T00:51:06;7.82;;;3.13;;
59054;SDS011;44845;51.444;7.460;2023-02-14T00:53:32;4.00;;;2.92;;
59054;SDS011;44845;51.444;7.460;2023-02-14T00:55:58;5.15;;;3.28;;
59054;SDS011;44845;51.444;7.460;2023-02-14T00:58:23;5.60;;;3.13;;
59054;SDS011;44845;51.444;7.460;2023-02-14T01:00:48;5.13;;;3.33;;
59054;SDS011;44845;51.444;7.460;2023-02-14T01:03:14;4.05;;;2.65;;
59054;SDS011;44845;51.444;7.460;2023-02-14T01:05:39;5.85;;;2.92;;
59054;SDS011;44845;51.444;7.460;2023-02-14T01:08:05;5.10;;;3.22;;
59054;SDS011;44845;51.444;7.460;2023-02-14T01:10:30;7.05;;;3.47;;
59054;SDS011;44845;51.444;7.460;2023-02-14T01:12:55;4.28;;;3.30;;
59054;SDS011;44845;51.444;7.460;2023-02-14T01:15:21;7.25;;;3.95;;
59054;SDS011;44845;51.444;7.460;2023-02-14T01:17:46;5.50;;;3.00;;
59054;SDS011;44845;51.444;7.460;2023-02-14T01:20:12;3.08;;;2.78;;
59054;SDS011;44845;51.444;7.460;2023-02-14T01:22:38;4.65;;;3.58;;
59054;SDS011;44845;51.444;7.460;2023-02-14T01:25:04;7.93;;;4.00;;
59054;SDS011;44845;51.444;7.460;2023-02-14T01:27:29;5.63;;;3.40;;
59054;SDS011;44845;51.444;7.460;2023-02-14T01:29:55;6.28;;;3.42;;
59054;SDS011;44845;51.444;7.460;2023-02-14T01:32:20;4.95;;;3.45;;
59054;SDS011;44845;51.444;7.460;2023-02-14T01:34:46;6.57;;;3.40;;
59054;SDS011;44845;51.444;7.460;2023-02-14T01:37:12;5.60;;;3.17;;
59054;SDS011;44845;51.444;7.460;2023-02-14T01:39:37;3.75;;;3.08;;
59054;SDS011;44845;51.444;7.460;2023-02-14T01:42:03;6.18;;;3.17;;
59054;SDS011;44845;51.444;7.460;2023-02-14T01:46:57;5.05;;;3.08;;
59054;SDS011;44845;51.444;7.460;2023-02-14T01:49:48;6.53;;;3.50;;
59054;SDS011;44845;51.444;7.460;2023-02-14T01:52:19;4.53;;;3.00;;
59054;SDS011;44845;51.444;7.460;2023-02-14T01:55:05;5.38;;;3.70;;
59054;SDS011;44845;51.444;7.460;2023-02-14T01:57:39;4.45;;;3.60;;
59054;SDS011;44845;51.444;7.460;2023-02-14T02:00:14;4.88;;;3.40;;
59054;SDS011;44845;51.444;7.460;2023-02-14T02:05:25;5.10;;;3.15;;
59054;SDS011;44845;51.444;7.460;2023-02-14T02:07:51;5.78;;;3.10;;
59054;SDS011;44845;51.444;7.460;2023-02-14T02:10:21;6.13;;;3.53;;
59054;SDS011;44845;51.444;7.460;2023-02-14T02:12:47;4.85;;;3.75;;
59054;SDS011;44845;51.444;7.460;2023-02-14T02:15:14;4.68;;;3.13;;
59054;SDS011;44845;51.444;7.460;2023-02-14T02:26:12;6.55;;;3.40;;
59054;SDS011;44845;51.444;7.460;2023-02-14T02:29:02;7.93;;;3.47;;
59054;SDS011;44845;51.444;7.460;2023-02-14T02:32:04;6.80;;;3.63;;
59054;SDS011;44845;51.444;7.460;2023-02-14T02:35:11;4.78;;;3.60;;
59054;SDS011;44845;51.444;7.460;2023-02-14T02:37:57;6.25;;;3.78;;
59054;SDS011;44845;51.444;7.460;2023-02-14T02:45:48;6.75;;;3.97;;
59054;SDS011;44845;51.444;7.460;2023-02-14T02:48:41;8.30;;;4.35;;
59054;SDS011;44845;51.444;7.460;2023-02-14T02:51:13;6.78;;;4.40;;
59054;SDS011;44845;51.444;7.460;2023-02-14T02:54:05;6.70;;;4.10;;
59054;SDS011;44845;51.444;7.460;2023-02-14T02:56:53;6.75;;;4.25;;
59054;SDS011;44845;51.444;7.460;2023-02-14T02:59:24;7.38;;;4.53;;
59054;SDS011;44845;51.444;7.460;2023-02-14T03:02:14;9.68;;;4.78;;
59054;SDS011;44845;51.444;7.460;2023-02-14T03:04:46;6.32;;;4.40;;
59054;SDS011;44845;51.444;7.460;2023-02-14T03:07:33;7.15;;;4.53;;
59054;SDS011;44845;51.444;7.460;2023-02-14T03:10:04;7.60;;;4.97;;
59054;SDS011;44845;51.444;7.460;2023-02-14T03:15:51;5.85;;;3.83;;
59054;SDS011;44845;51.444;7.460;2023-02-14T03:18:38;8.30;;;4.80;;
59054;SDS011;44845;51.444;7.460;2023-02-14T03:29:21;7.30;;;4.35;;
59054;SDS011;44845;51.444;7.460;2023-02-14T03:37:25;5.88;;;3.95;;
59054;SDS011;44845;51.444;7.460;2023-02-14T03:42:39;6.50;;;4.30;;
59054;SDS011;44845;51.444;7.460;2023-02-14T03:45:28;8.88;;;4.90;;
59054;SDS011;44845;51.444;7.460;2023-02-14T03:47:57;8.40;;;4.85;;
59054;SDS011;44845;51.444;7.460;2023-02-14T03:50:25;5.95;;;4.63;;
59054;SDS011;44845;51.444;7.460;2023-02-14T03:52:52;6.35;;;4.30;;
59054;SDS011;44845;51.444;7.460;2023-02-14T03:55:23;7.30;;;4.35;;
59054;SDS011;44845;51.444;7.460;2023-02-14T03:57:57;7.35;;;5.20;;
59054;SDS011;44845;51.444;7.460;2023-02-14T04:00:31;7.55;;;5.00;;
59054;SDS011;44845;51.444;7.460;2023-02-14T04:03:02;7.15;;;4.55;;
59054;SDS011;44845;51.444;7.460;2023-02-14T04:05:33;8.40;;;4.85;;
59054;SDS011;44845;51.444;7.460;2023-02-14T04:07:59;12.45;;;4.93;;
59054;SDS011;44845;51.444;7.460;2023-02-14T04:10:24;7.05;;;4.95;;
59054;SDS011;44845;51.444;7.460;2023-02-14T04:12:51;8.10;;;5.20;;
59054;SDS011;44845;51.444;7.460;2023-02-14T04:15:16;10.20;;;5.40;;
59054;SDS011;44845;51.444;7.460;2023-02-14T04:17:42;8.32;;;4.97;;
59054;SDS011;44845;51.444;7.460;2023-02-14T04:20:27;11.35;;;5.10;;
59054;SDS011;44845;51.444;7.460;2023-02-14T04:22:53;9.93;;;6.03;;
59054;SDS011;44845;51.444;7.460;2023-02-14T04:25:19;8.65;;;5.25;;
59054;SDS011;44845;51.444;7.460;2023-02-14T04:27:46;8.40;;;5.15;;
59054;SDS011;44845;51.444;7.460;2023-02-14T04:30:11;9.88;;;5.45;;
59054;SDS011;44845;51.444;7.460;2023-02-14T04:32:37;7.70;;;5.03;;
59054;SDS011;44845;51.444;7.460;2023-02-14T04:35:03;9.57;;;5.75;;
59054;SDS011;44845;51.444;7.460;2023-02-14T04:37:29;7.35;;;5.25;;
59054;SDS011;44845;51.444;7.460;2023-02-14T04:39:54;9.38;;;5.45;;
59054;SDS011;44845;51.444;7.460;2023-02-14T04:42:19;8.45;;;5.50;;
59054;SDS011;44845;51.444;7.460;2023-02-14T04:44:45;7.93;;;5.45;;
59054;SDS011;44845;51.444;7.460;2023-02-14T04:47:10;8.77;;;5.38;;
59054;SDS011;44845;51.444;7.460;2023-02-14T04:49:35;7.65;;;5.03;;
59054;SDS011;44845;51.444;7.460;2023-02-14T04:52:01;8.55;;;5.28;;
59054;SDS011;44845;51.444;7.460;2023-02-14T04:54:27;10.00;;;5.53;;
59054;SDS011;44845;51.444;7.460;2023-02-14T04:56:52;9.27;;;4.72;;
59054;SDS011;44845;51.444;7.460;2023-02-14T04:59:18;9.40;;;5.13;;
59054;SDS011;44845;51.444;7.460;2023-02-14T05:01:43;8.68;;;4.90;;
59054;SDS011;44845;51.444;7.460;2023-02-14T05:04:09;8.23;;;5.15;;
59054;SDS011;44845;51.444;7.460;2023-02-14T05:06:34;10.13;;;4.93;;
59054;SDS011;44845;51.444;7.460;2023-02-14T05:09:00;7.78;;;5.03;;
59054;SDS011;44845;51.444;7.460;2023-02-14T05:11:26;9.90;;;5.00;;
59054;SDS011;44845;51.444;7.460;2023-02-14T05:13:53;8.02;;;5.07;;
59054;SDS011;44845;51.444;7.460;2023-02-14T05:16:18;8.05;;;4.95;;
59054;SDS011;44845;51.444;7.460;2023-02-14T05:18:43;8.20;;;5.55;;
59054;SDS011;44845;51.444;7.460;2023-02-14T05:21:09;7.72;;;5.20;;
59054;SDS011;44845;51.444;7.460;2023-02-14T05:23:35;8.25;;;5.13;;
59054;SDS011;44845;51.444;7.460;2023-02-14T05:26:00;8.43;;;5.20;;
59054;SDS011;44845;51.444;7.460;2023-02-14T05:28:25;7.85;;;5.28;;
59054;SDS011;44845;51.444;7.460;2023-02-14T05:30:51;7.45;;;5.47;;
59054;SDS011;44845;51.444;7.460;2023-02-14T05:33:17;8.77;;;5.03;;
59054;SDS011;44845;51.444;7.460;2023-02-14T05:35:42;9.35;;;5.45;;
59054;SDS011;44845;51.444;7.460;2023-02-14T05:38:08;11.70;;;5.75;;
59054;SDS011;44845;51.444;7.460;2023-02-14T05:40:34;8.07;;;5.82;;
59054;SDS011;44845;51.444;7.460;2023-02-14T05:42:59;7.60;;;4.63;;
59054;SDS011;44845;51.444;7.460;2023-02-14T05:45:24;8.75;;;5.65;;
59054;SDS011;44845;51.444;7.460;2023-02-14T05:47:50;10.32;;;5.72;;
59054;SDS011;44845;51.444;7.460;2023-02-14T05:50:16;9.27;;;5.68;;
59054;SDS011;44845;51.444;7.460;2023-02-14T05:52:41;9.90;;;5.50;;
59054;SDS011;44845;51.444;7.460;2023-02-14T05:55:07;8.05;;;5.47;;
59054;SDS011;44845;51.444;7.460;2023-02-14T05:57:33;10.45;;;6.07;;
59054;SDS011;44845;51.444;7.460;2023-02-14T05:59:59;9.70;;;6.05;;
59054;SDS011;44845;51.444;7.460;2023-02-14T06:02:25;10.77;;;6.10;;
59054;SDS011;44845;51.444;7.460;2023-02-14T06:04:50;9.52;;;5.85;;
59054;SDS011;44845;51.444;7.460;2023-02-14T06:07:16;12.50;;;6.55;;
59054;SDS011;44845;51.444;7.460;2023-02-14T06:09:41;10.40;;;6.47;;
59054;SDS011;44845;51.444;7.460;2023-02-14T06:12:07;11.35;;;7.38;;
59054;SDS011;44845;51.444;7.460;2023-02-14T06:14:32;11.15;;;6.93;;
59054;SDS011;44845;51.444;7.460;2023-02-14T06:16:57;11.73;;;6.97;;
59054;SDS011;44845;51.444;7.460;2023-02-14T06:19:23;13.25;;;7.40;;
59054;SDS011;44845;51.444;7.460;2023-02-14T06:21:48;15.20;;;7.88;;
59054;SDS011;44845;51.444;7.460;2023-02-14T06:24:13;11.18;;;6.82;;
59054;SDS011;44845;51.444;7.460;2023-02-14T06:26:39;14.00;;;7.38;;
59054;SDS011;44845;51.444;7.460;2023-02-14T06:29:04;11.60;;;7.40;;
59054;SDS011;44845;51.444;7.460;2023-02-14T06:31:30;11.00;;;6.78;;
59054;SDS011;44845;51.444;7.460;2023-02-14T06:33:55;14.25;;;7.30;;
59054;SDS011;44845;51.444;7.460;2023-02-14T06:36:21;10.30;;;6.85;;
59054;SDS011;44845;51.444;7.460;2023-02-14T06:38:47;11.50;;;6.78;;
59054;SDS011;44845;51.444;7.460;2023-02-14T06:41:13;13.63;;;6.68;;
59054;SDS011;44845;51.444;7.460;2023-02-14T06:43:41;10.35;;;6.20;;
59054;SDS011;44845;51.444;7.460;2023-02-14T06:46:07;11.23;;;6.57;;
59054;SDS011;44845;51.444;7.460;2023-02-14T06:48:32;11.18;;;6.45;;
59054;SDS011;44845;51.444;7.460;2023-02-14T06:50:57;12.57;;;6.35;;
59054;SDS011;44845;51.444;7.460;2023-02-14T06:53:23;9.68;;;6.13;;
59054;SDS011;44845;51.444;7.460;2023-02-14T06:55:48;11.30;;;6.80;;
59054;SDS011;44845;51.444;7.460;2023-02-14T06:58:13;9.70;;;6.47;;
59054;SDS011;44845;51.444;7.460;2023-02-14T07:00:39;14.68;;;7.22;;
59054;SDS011;44845;51.444;7.460;2023-02-14T07:03:05;11.32;;;6.85;;
59054;SDS011;44845;51.444;7.460;2023-02-14T07:05:32;11.35;;;7.13;;
59054;SDS011;44845;51.444;7.460;2023-02-14T07:07:57;12.07;;;7.28;;
59054;SDS011;44845;51.444;7.460;2023-02-14T07:10:23;12.70;;;7.00;;
59054;SDS011;44845;51.444;7.460;2023-02-14T07:12:49;12.10;;;7.30;;
59054;SDS011;44845;51.444;7.460;2023-02-14T07:15:14;11.45;;;6.45;;
59054;SDS011;44845;51.444;7.460;2023-02-14T07:17:40;12.15;;;6.80;;
59054;SDS011;44845;51.444;7.460;2023-02-14T07:20:06;11.75;;;6.53;;
59054;SDS011;44845;51.444;7.460;2023-02-14T07:22:33;12.82;;;7.30;;
59054;SDS011;44845;51.444;7.460;2023-02-14T07:24:59;11.43;;;6.50;;
59054;SDS011;44845;51.444;7.460;2023-02-14T07:27:25;11.10;;;6.78;;
59054;SDS011;44845;51.444;7.460;2023-02-14T07:29:50;10.43;;;6.30;;
59054;SDS011;44845;51.444;7.460;2023-02-14T07:32:15;11.40;;;6.57;;
59054;SDS011;44845;51.444;7.460;2023-02-14T07:34:41;10.05;;;6.45;;
59054;SDS011;44845;51.444;7.460;2023-02-14T07:37:06;10.88;;;6.40;;
59054;SDS011;44845;51.444;7.460;2023-02-14T07:39:32;10.70;;;6.18;;
59054;SDS011;44845;51.444;7.460;2023-02-14T07:41:58;12.73;;;7.13;;
59054;SDS011;44845;51.444;7.460;2023-02-14T07:44:23;11.18;;;6.60;;
59054;SDS011;44845;51.444;7.460;2023-02-14T07:46:49;12.98;;;6.82;;
59054;SDS011;44845;51.444;7.460;2023-02-14T07:49:14;12.20;;;6.88;;
59054;SDS011;44845;51.444;7.460;2023-02-14T07:51:40;10.88;;;6.65;;
59054;SDS011;44845;51.444;7.460;2023-02-14T07:54:05;10.15;;;6.00;;
59054;SDS011;44845;51.444;7.460;2023-02-14T07:56:30;13.15;;;6.88;;
59054;SDS011;44845;51.444;7.460;2023-02-14T07:58:56;13.70;;;6.30;;
59054;SDS011;44845;51.444;7.460;2023-02-14T08:01:22;11.20;;;6.68;;
59054;SDS011;44845;51.444;7.460;2023-02-14T08:03:47;12.40;;;6.82;;
59054;SDS011;44845;51.444;7.460;2023-02-14T08:06:19;10.85;;;6.53;;
59054;SDS011;44845;51.444;7.460;2023-02-14T08:08:45;13.48;;;6.93;;
59054;SDS011;44845;51.444;7.460;2023-02-14T08:11:11;12.52;;;7.28;;
59054;SDS011;44845;51.444;7.460;2023-02-14T08:13:57;12.38;;;7.53;;
59054;SDS011;44845;51.444;7.460;2023-02-14T08:16:22;16.10;;;7.57;;
59054;SDS011;44845;51.444;7.460;2023-02-14T08:18:48;12.75;;;6.60;;
59054;SDS011;44845;51.444;7.460;2023-02-14T08:21:13;11.77;;;7.13;;
59054;SDS011;44845;51.444;7.460;2023-02-14T08:23:40;14.93;;;7.20;;
59054;SDS011;44845;51.444;7.460;2023-02-14T08:26:06;12.88;;;7.28;;
59054;SDS011;44845;51.444;7.460;2023-02-14T08:28:31;13.25;;;7.65;;
59054;SDS011;44845;51.444;7.460;2023-02-14T08:30:57;12.65;;;7.80;;
59054;SDS011;44845;51.444;7.460;2023-02-14T08:33:22;11.63;;;7.00;;
59054;SDS011;44845;51.444;7.460;2023-02-14T08:35:49;13.25;;;8.15;;
59054;SDS011;44845;51.444;7.460;2023-02-14T08:38:15;14.13;;;7.90;;
59054;SDS011;44845;51.444;7.460;2023-02-14T08:40:40;12.45;;;7.03;;
59054;SDS011;44845;51.444;7.460;2023-02-14T08:43:06;14.40;;;7.50;;
59054;SDS011;44845;51.444;7.460;2023-02-14T08:45:32;12.85;;;7.60;;
59054;SDS011;44845;51.444;7.460;2023-02-14T08:48:01;15.15;;;7.25;;
59054;SDS011;44845;51.444;7.460;2023-02-14T08:50:30;12.80;;;7.60;;
59054;SDS011;44845;51.444;7.460;2023-02-14T08:52:56;12.43;;;8.38;;
59054;SDS011;44845;51.444;7.460;2023-02-14T08:55:21;14.15;;;7.15;;
59054;SDS011;44845;51.444;7.460;2023-02-14T08:57:46;11.15;;;7.25;;
59054;SDS011;44845;51.444;7.460;2023-02-14T09:00:13;16.48;;;7.57;;
59054;SDS011;44845;51.444;7.460;2023-02-14T09:02:39;13.45;;;6.80;;
59054;SDS011;44845;51.444;7.460;2023-02-14T09:05:04;13.48;;;7.03;;
59054;SDS011;44845;51.444;7.460;2023-02-14T09:07:31;12.98;;;6.30;;
59054;SDS011;44845;51.444;7.460;2023-02-14T09:09:57;11.93;;;6.80;;
59054;SDS011;44845;51.444;7.460;2023-02-14T09:12:23;10.90;;;6.55;;
59054;SDS011;44845;51.444;7.460;2023-02-14T09:14:48;10.13;;;6.35;;
59054;SDS011;44845;51.444;7.460;2023-02-14T09:17:13;8.93;;;5.90;;
59054;SDS011;44845;51.444;7.460;2023-02-14T09:19:40;12.55;;;6.85;;
59054;SDS011;44845;51.444;7.460;2023-02-14T09:22:06;12.85;;;7.15;;
59054;SDS011;44845;51.444;7.460;2023-02-14T09:24:33;10.13;;;6.15;;
59054;SDS011;44845;51.444;7.460;2023-02-14T09:27:00;11.77;;;6.53;;
59054;SDS011;44845;51.444;7.460;2023-02-14T09:29:26;12.60;;;6.50;;
59054;SDS011;44845;51.444;7.460;2023-02-14T09:31:56;11.50;;;6.18;;
59054;SDS011;44845;51.444;7.460;2023-02-14T09:34:23;10.48;;;6.13;;
59054;SDS011;44845;51.444;7.460;2023-02-14T09:36:49;9.63;;;5.68;;
59054;SDS011;44845;51.444;7.460;2023-02-14T09:39:15;9.45;;;6.00;;
59054;SDS011;44845;51.444;7.460;2023-02-14T09:46:58;9.02;;;5.70;;
59054;SDS011;44845;51.444;7.460;2023-02-14T09:49:30;8.45;;;5.45;;
59054;SDS011;44845;51.444;7.460;2023-02-14T09:52:00;11.93;;;6.13;;
59054;SDS011;44845;51.444;7.460;2023-02-14T09:54:27;9.32;;;5.82;;
59054;SDS011;44845;51.444;7.460;2023-02-14T09:57:00;9.65;;;6.07;;
59054;SDS011;44845;51.444;7.460;2023-02-14T09:59:40;10.30;;;5.60;;
59054;SDS011;44845;51.444;7.460;2023-02-14T10:05:01;9.93;;;6.07;;
59054;SDS011;44845;51.444;7.460;2023-02-14T10:10:24;10.55;;;5.95;;
59054;SDS011;44845;51.444;7.460;2023-02-14T10:15:42;12.43;;;6.45;;
59054;SDS011;44845;51.444;7.460;2023-02-14T10:18:15;12.90;;;6.50;;
59054;SDS011;44845;51.444;7.460;2023-02-14T10:20:45;11.68;;;6.28;;
59054;SDS011;44845;51.444;7.460;2023-02-14T10:23:24;15.25;;;6.78;;
59054;SDS011;44845;51.444;7.460;2023-02-14T10:26:01;9.27;;;6.07;;
59054;SDS011;44845;51.444;7.460;2023-02-14T10:28:34;12.77;;;6.18;;
59054;SDS011;44845;51.444;7.460;2023-02-14T10:33:56;13.45;;;6.68;;
59054;SDS011;44845;51.444;7.460;2023-02-14T10:39:10;10.38;;;6.95;;
59054;SDS011;44845;51.444;7.460;2023-02-14T10:42:53;9.57;;;6.00;;
59054;SDS011;44845;51.444;7.460;2023-02-14T10:58:38;9.02;;;5.10;;
59054;SDS011;44845;51.444;7.460;2023-02-14T11:01:09;9.80;;;5.32;;
59054;SDS011;44845;51.444;7.460;2023-02-14T11:03:38;8.65;;;5.22;;
59054;SDS011;44845;51.444;7.460;2023-02-14T11:06:07;8.75;;;5.32;;
59054;SDS011;44845;51.444;7.460;2023-02-14T11:08:35;8.45;;;5.15;;
59054;SDS011;44845;51.444;7.460;2023-02-14T11:11:15;9.07;;;5.30;;
59054;SDS011;44845;51.444;7.460;2023-02-14T11:13:45;9.18;;;5.20;;
59054;SDS011;44845;51.444;7.460;2023-02-14T11:16:12;7.43;;;4.85;;
59054;SDS011;44845;51.444;7.460;2023-02-14T11:18:51;7.75;;;4.60;;
59054;SDS011;44845;51.444;7.460;2023-02-14T11:21:35;7.15;;;4.57;;
59054;SDS011;44845;51.444;7.460;2023-02-14T11:24:03;8.25;;;4.85;;
59054;SDS011;44845;51.444;7.460;2023-02-14T11:26:43;7.75;;;4.57;;
59054;SDS011;44845;51.444;7.460;2023-02-14T11:29:14;6.03;;;4.20;;
59054;SDS011;44845;51.444;7.460;2023-02-14T11:31:50;8.57;;;4.28;;
59054;SDS011;44845;51.444;7.460;2023-02-14T11:34:32;5.75;;;3.47;;
59054;SDS011;44845;51.444;7.460;2023-02-14T11:37:00;4.60;;;3.60;;
59054;SDS011;44845;51.444;7.460;2023-02-14T11:39:33;4.28;;;3.28;;
59054;SDS011;44845;51.444;7.460;2023-02-14T11:42:00;4.57;;;3.50;;
59054;SDS011;44845;51.444;7.460;2023-02-14T11:44:28;6.40;;;3.45;;
59054;SDS011;44845;51.444;7.460;2023-02-14T11:46:56;6.40;;;4.10;;
59054;SDS011;44845;51.444;7.460;2023-02-14T11:52:09;5.90;;;3.50;;
59054;SDS011;44845;51.444;7.460;2023-02-14T11:57:14;7.40;;;3.95;;
59054;SDS011;44845;51.444;7.460;2023-02-14T11:59:48;6.97;;;3.08;;
59054;SDS011;44845;51.444;7.460;2023-02-14T12:04:47;6.05;;;3.72;;
59054;SDS011;44845;51.444;7.460;2023-02-14T12:07:35;6.53;;;3.40;;
59054;SDS011;44845;51.444;7.460;2023-02-14T12:12:33;6.53;;;3.85;;
59054;SDS011;44845;51.444;7.460;2023-02-14T12:17:46;4.60;;;3.28;;
59054;SDS011;44845;51.444;7.460;2023-02-14T12:20:18;5.53;;;3.38;;
59054;SDS011;44845;51.444;7.460;2023-02-14T12:23:03;5.75;;;3.22;;
59054;SDS011;44845;51.444;7.460;2023-02-14T12:25:40;5.80;;;3.33;;
59054;SDS011;44845;51.444;7.460;2023-02-14T12:28:11;5.43;;;3.30;;
59054;SDS011;44845;51.444;7.460;2023-02-14T12:30:43;5.75;;;3.22;;
59054;SDS011;44845;51.444;7.460;2023-02-14T12:33:15;4.45;;;3.30;;
59054;SDS011;44845;51.444;7.460;2023-02-14T12:39:11;6.57;;;3.03;;
59054;SDS011;44845;51.444;7.460;2023-02-14T12:44:13;4.30;;;3.03;;
59054;SDS011;44845;51.444;7.460;2023-02-14T12:57:48;5.88;;;2.80;;
59054;SDS011;44845;51.444;7.460;2023-02-14T13:05:59;3.30;;;2.58;;
59054;SDS011;44845;51.444;7.460;2023-02-14T13:17:31;5.15;;;2.80;;
59054;SDS011;44845;51.444;7.460;2023-02-14T13:22:31;4.18;;;2.50;;
59054;SDS011;44845;51.444;7.460;2023-02-14T13:25:05;5.55;;;2.80;;
59054;SDS011;44845;51.444;7.460;2023-02-14T13:27:54;4.75;;;2.60;;
59054;SDS011;44845;51.444;7.460;2023-02-14T13:30:22;3.60;;;2.80;;
59054;SDS011;44845;51.444;7.460;2023-02-14T13:32:51;4.72;;;3.15;;
59054;SDS011;44845;51.444;7.460;2023-02-14T13:35:21;4.95;;;2.70;;
59054;SDS011;44845;51.444;7.460;2023-02-14T13:37:50;4.18;;;2.70;;
59054;SDS011;44845;51.444;7.460;2023-02-14T13:40:19;3.65;;;2.47;;
59054;SDS011;44845;51.444;7.460;2023-02-14T13:48:09;4.55;;;2.75;;
59054;SDS011;44845;51.444;7.460;2023-02-14T13:50:47;4.43;;;2.80;;
59054;SDS011;44845;51.444;7.460;2023-02-14T13:53:33;3.30;;;2.22;;
59054;SDS011;44845;51.444;7.460;2023-02-14T13:58:47;6.68;;;2.60;;
59054;SDS011;44845;51.444;7.460;2023-02-14T14:03:56;3.83;;;2.17;;
59054;SDS011;44845;51.444;7.460;2023-02-14T14:06:24;4.07;;;2.20;;
59054;SDS011;44845;51.444;7.460;2023-02-14T14:08:51;3.90;;;2.60;;
59054;SDS011;44845;51.444;7.460;2023-02-14T14:13:55;3.95;;;2.42;;
59054;SDS011;44845;51.444;7.460;2023-02-14T14:18:48;3.78;;;2.80;;
59054;SDS011;44845;51.444;7.460;2023-02-14T14:21:22;3.92;;;2.40;;
59054;SDS011;44845;51.444;7.460;2023-02-14T14:26:56;5.13;;;2.90;;
59054;SDS011;44845;51.444;7.460;2023-02-14T14:29:33;3.72;;;2.40;;
59054;SDS011;44845;51.444;7.460;2023-02-14T14:32:09;4.00;;;2.20;;
59054;SDS011;44845;51.444;7.460;2023-02-14T14:37:23;5.47;;;2.40;;
59054;SDS011;44845;51.444;7.460;2023-02-14T14:40:17;5.30;;;2.10;;
59054;SDS011;44845;51.444;7.460;2023-02-14T14:42:48;4.68;;;2.47;;
59054;SDS011;44845;51.444;7.460;2023-02-14T14:45:20;5.47;;;2.78;;
59054;SDS011;44845;51.444;7.460;2023-02-14T14:47:48;3.65;;;2.65;;
59054;SDS011;44845;51.444;7.460;2023-02-14T14:50:24;6.32;;;3.20;;
59054;SDS011;44845;51.444;7.460;2023-02-14T14:52:53;5.50;;;2.35;;
59054;SDS011;44845;51.444;7.460;2023-02-14T14:55:27;6.18;;;2.60;;
59054;SDS011;44845;51.444;7.460;2023-02-14T14:57:57;3.97;;;2.42;;
59054;SDS011;44845;51.444;7.460;2023-02-14T15:00:27;3.97;;;2.42;;
59054;SDS011;44845;51.444;7.460;2023-02-14T15:10:47;5.80;;;2.08;;
59054;SDS011;44845;51.444;7.460;2023-02-14T15:13:20;5.47;;;2.57;;
59054;SDS011;44845;51.444;7.460;2023-02-14T15:16:34;3.60;;;2.42;;
59054;SDS011;44845;51.444;7.460;2023-02-14T15:19:05;4.15;;;2.53;;
59054;SDS011;44845;51.444;7.460;2023-02-14T15:21:40;3.75;;;2.50;;
59054;SDS011;44845;51.444;7.460;2023-02-14T15:24:08;4.35;;;2.50;;
59054;SDS011;44845;51.444;7.460;2023-02-14T15:26:37;3.97;;;2.35;;
59054;SDS011;44845;51.444;7.460;2023-02-14T15:29:03;6.93;;;3.75;;
59054;SDS011;44845;51.444;7.460;2023-02-14T15:31:32;9.45;;;4.13;;
59054;SDS011;44845;51.444;7.460;2023-02-14T15:34:00;6.80;;;3.88;;
59054;SDS011;44845;51.444;7.460;2023-02-14T15:36:28;7.97;;;4.30;;
59054;SDS011;44845;51.444;7.460;2023-02-14T15:38:54;6.88;;;4.10;;
59054;SDS011;44845;51.444;7.460;2023-02-14T15:41:21;13.82;;;4.40;;
59054;SDS011;44845;51.444;7.460;2023-02-14T15:43:52;7.63;;;4.28;;
59054;SDS011;44845;51.444;7.460;2023-02-14T15:46:30;9.73;;;3.90;;
59054;SDS011;44845;51.444;7.460;2023-02-14T15:48:57;6.15;;;4.07;;
59054;SDS011;44845;51.444;7.460;2023-02-14T15:51:26;6.18;;;3.80;;
59054;SDS011;44845;51.444;7.460;2023-02-14T15:53:57;8.50;;;3.95;;
59054;SDS011;44845;51.444;7.460;2023-02-14T15:56:26;5.90;;;3.55;;
59054;SDS011;44845;51.444;7.460;2023-02-14T16:01:27;5.88;;;3.53;;
59054;SDS011;44845;51.444;7.460;2023-02-14T16:03:54;8.18;;;3.83;;
59054;SDS011;44845;51.444;7.460;2023-02-14T16:06:30;7.85;;;3.92;;
59054;SDS011;44845;51.444;7.460;2023-02-14T16:09:27;8.75;;;4.45;;
59054;SDS011;44845;51.444;7.460;2023-02-14T16:11:54;8.77;;;4.28;;
59054;SDS011;44845;51.444;7.460;2023-02-14T16:14:30;5.43;;;3.95;;
59054;SDS011;44845;51.444;7.460;2023-02-14T16:19:35;5.93;;;3.38;;
59054;SDS011;44845;51.444;7.460;2023-02-14T16:22:09;12.90;;;4.45;;
59054;SDS011;44845;51.444;7.460;2023-02-14T16:24:38;6.45;;;3.88;;
59054;SDS011;44845;51.444;7.460;2023-02-14T16:27:04;6.28;;;4.05;;
59054;SDS011;44845;51.444;7.460;2023-02-14T16:29:33;5.88;;;3.97;;
59054;SDS011;44845;51.444;7.460;2023-02-14T16:32:07;7.32;;;4.28;;
59054;SDS011;44845;51.444;7.460;2023-02-14T16:34:37;10.75;;;4.72;;
59054;SDS011;44845;51.444;7.460;2023-02-14T16:37:04;8.52;;;4.72;;
59054;SDS011;44845;51.444;7.460;2023-02-14T16:39:32;8.95;;;4.55;;
59054;SDS011;44845;51.444;7.460;2023-02-14T16:41:58;10.55;;;5.00;;
59054;SDS011;44845;51.444;7.460;2023-02-14T16:44:24;7.05;;;4.30;;
59054;SDS011;44845;51.444;7.460;2023-02-14T16:46:49;8.77;;;4.22;;
59054;SDS011;44845;51.444;7.460;2023-02-14T16:49:15;9.20;;;4.18;;
59054;SDS011;44845;51.444;7.460;2023-02-14T16:51:41;8.77;;;4.20;;
59054;SDS011;44845;51.444;7.460;2023-02-14T16:54:19;9.73;;;4.40;;
59054;SDS011;44845;51.444;7.460;2023-02-14T16:56:56;9.25;;;4.18;;
59054;SDS011;44845;51.444;7.460;2023-02-14T16:59:25;12.18;;;4.22;;
59054;SDS011;44845;51.444;7.460;2023-02-14T17:01:50;8.85;;;4.20;;
59054;SDS011;44845;51.444;7.460;2023-02-14T17:04:15;9.45;;;4.30;;
59054;SDS011;44845;51.444;7.460;2023-02-14T17:06:42;9.32;;;4.20;;
59054;SDS011;44845;51.444;7.460;2023-02-14T17:09:12;7.70;;;4.22;;
59054;SDS011;44845;51.444;7.460;2023-02-14T17:11:41;10.40;;;4.32;;
59054;SDS011;44845;51.444;7.460;2023-02-14T17:14:12;10.05;;;4.75;;
59054;SDS011;44845;51.444;7.460;2023-02-14T17:16:41;9.05;;;4.60;;
59054;SDS011;44845;51.444;7.460;2023-02-14T17:19:07;7.07;;;4.35;;
59054;SDS011;44845;51.444;7.460;2023-02-14T17:21:32;9.52;;;4.43;;
59054;SDS011;44845;51.444;7.460;2023-02-14T17:23:59;6.75;;;4.60;;
59054;SDS011;44845;51.444;7.460;2023-02-14T17:26:25;7.88;;;4.30;;
59054;SDS011;44845;51.444;7.460;2023-02-14T17:28:50;10.90;;;5.45;;
59054;SDS011;44845;51.444;7.460;2023-02-14T17:31:16;9.57;;;5.43;;